createdAt,value
2018-03-18T00:01:54.908Z,33.50
2018-03-18T00:04:22.062Z,31.30
2018-03-18T00:06:49.198Z,33.75
2018-03-18T00:09:15.565Z,34.20
2018-03-18T00:11:41.956Z,32.35
2018-03-18T00:14:08.365Z,34.33
2018-03-18T00:16:34.772Z,33.53
2018-03-18T00:19:01.194Z,35.38
2018-03-18T00:21:28.334Z,34.22
2018-03-18T00:23:55.472Z,34.80
2018-03-18T00:26:21.838Z,33.72
2018-03-18T00:28:48.239Z,33.40
2018-03-18T00:31:14.643Z,34.50
2018-03-18T00:33:41.078Z,32.50
2018-03-18T00:36:07.530Z,33.70
2018-03-18T00:38:33.902Z,35.05
2018-03-18T00:41:00.303Z,37.15
2018-03-18T00:43:26.702Z,35.88
2018-03-18T00:45:53.075Z,36.80
2018-03-18T00:48:20.267Z,33.90
2018-03-18T00:50:46.654Z,37.45
2018-03-18T00:53:13.054Z,36.38
2018-03-18T00:55:39.472Z,34.33
2018-03-18T00:58:05.867Z,34.95
2018-03-18T01:00:32.255Z,35.08
2018-03-18T01:02:58.635Z,35.50
2018-03-18T01:05:25.777Z,35.53
2018-03-18T01:07:52.154Z,35.30
2018-03-18T01:10:18.566Z,36.00
2018-03-18T01:12:45.710Z,36.75
2018-03-18T01:15:12.866Z,36.80
2018-03-18T01:17:40.005Z,36.90
2018-03-18T01:20:06.381Z,35.72
2018-03-18T01:22:32.791Z,34.97
2018-03-18T01:24:59.909Z,34.30
2018-03-18T01:27:26.315Z,35.03
2018-03-18T01:29:52.715Z,32.83
2018-03-18T01:32:19.830Z,33.88
2018-03-18T01:34:46.255Z,33.47
2018-03-18T01:37:12.649Z,33.35
2018-03-18T01:39:39.042Z,31.52
2018-03-18T01:42:05.437Z,33.70
2018-03-18T01:44:31.847Z,30.10
2018-03-18T01:46:58.246Z,29.70
2018-03-18T01:49:24.614Z,30.00
2018-03-18T01:51:51.058Z,29.10
2018-03-18T01:54:17.431Z,28.77
2018-03-18T01:56:43.827Z,29.92
2018-03-18T01:59:10.226Z,28.70
2018-03-18T02:01:37.355Z,30.08
2018-03-18T02:04:03.792Z,30.45
2018-03-18T02:06:30.166Z,28.95
2018-03-18T02:08:56.599Z,29.35
2018-03-18T02:11:22.977Z,28.40
2018-03-18T02:13:49.382Z,28.95
2018-03-18T02:16:15.781Z,27.80
2018-03-18T02:18:42.889Z,27.95
2018-03-18T02:21:09.283Z,30.05
2018-03-18T02:23:35.654Z,29.00
2018-03-18T02:26:02.075Z,29.70
2018-03-18T02:28:28.454Z,26.55
2018-03-18T02:30:54.839Z,25.85
2018-03-18T02:33:21.258Z,30.77
2018-03-18T02:35:47.700Z,29.67
2018-03-18T02:38:14.135Z,28.90
2018-03-18T02:40:40.520Z,28.83
2018-03-18T02:43:06.905Z,28.45
2018-03-18T02:45:33.319Z,28.58
2018-03-18T02:47:59.702Z,28.62
2018-03-18T02:50:26.105Z,29.48
2018-03-18T02:52:52.532Z,30.48
2018-03-18T02:55:18.914Z,28.90
2018-03-18T02:57:45.331Z,32.55
2018-03-18T03:00:11.706Z,31.25
2018-03-18T03:02:38.834Z,32.17
2018-03-18T03:05:05.206Z,30.00
2018-03-18T03:07:31.610Z,32.80
2018-03-18T03:09:58.009Z,31.45
2018-03-18T03:12:24.386Z,33.67
2018-03-18T03:14:51.529Z,31.62
2018-03-18T03:17:17.919Z,31.25
2018-03-18T03:19:44.314Z,32.90
2018-03-18T03:22:11.508Z,33.45
2018-03-18T03:24:37.916Z,32.20
2018-03-18T03:27:04.331Z,33.40
2018-03-18T03:29:31.435Z,32.97
2018-03-18T03:31:57.827Z,32.03
2018-03-18T03:34:24.221Z,34.85
2018-03-18T03:36:50.638Z,33.15
2018-03-18T03:39:17.026Z,33.33
2018-03-18T03:49:02.835Z,22.30
2018-03-18T03:51:29.218Z,33.20
2018-03-18T03:53:55.628Z,34.05
2018-03-18T03:56:22.074Z,34.38
2018-03-18T03:58:48.473Z,32.95
2018-03-18T04:01:14.863Z,33.72
2018-03-18T04:03:41.246Z,34.17
2018-03-18T04:06:07.650Z,32.15
2018-03-18T04:08:34.053Z,34.72
2018-03-18T04:11:00.449Z,34.72
2018-03-18T04:13:26.822Z,34.50
2018-03-18T04:15:53.236Z,33.87
2018-03-18T04:18:20.387Z,34.58
2018-03-18T04:20:47.559Z,34.15
2018-03-18T04:23:14.033Z,33.50
2018-03-18T04:25:40.431Z,34.23
2018-03-18T04:28:06.827Z,35.78
2018-03-18T04:30:33.970Z,34.45
2018-03-18T04:33:00.413Z,33.67
2018-03-18T04:35:26.796Z,34.65
2018-03-18T04:37:53.218Z,33.00
2018-03-18T04:40:19.678Z,30.35
2018-03-18T04:42:46.126Z,31.90
2018-03-18T04:45:12.545Z,31.87
2018-03-18T04:47:38.951Z,31.42
2018-03-18T04:50:05.333Z,28.00
2018-03-18T04:52:31.739Z,31.45
2018-03-18T04:54:58.126Z,31.67
2018-03-18T04:57:25.262Z,32.90
2018-03-18T04:59:51.646Z,26.60
2018-03-18T05:02:18.009Z,27.42
2018-03-18T05:04:44.409Z,27.10
2018-03-18T05:07:10.817Z,28.45
2018-03-18T05:09:37.942Z,26.87
2018-03-18T05:12:04.351Z,26.60
2018-03-18T05:14:30.731Z,27.15
2018-03-18T05:16:57.117Z,25.70
2018-03-18T05:19:23.512Z,26.70
2018-03-18T05:21:50.674Z,26.58
2018-03-18T05:24:17.054Z,26.20
2018-03-18T05:26:43.471Z,27.45
2018-03-18T05:29:09.878Z,25.42
2018-03-18T05:31:36.298Z,25.33
2018-03-18T05:34:03.454Z,23.40
2018-03-18T05:36:29.834Z,25.90
2018-03-18T05:38:56.295Z,24.25
2018-03-18T05:41:22.662Z,24.10
2018-03-18T05:43:49.101Z,22.27
2018-03-18T05:46:15.529Z,23.50
2018-03-18T05:48:41.897Z,23.10
2018-03-18T05:51:08.286Z,23.35
2018-03-18T05:53:35.397Z,23.17
2018-03-18T05:56:01.797Z,21.62
2018-03-18T05:58:28.182Z,22.23
2018-03-18T06:00:54.579Z,22.55
2018-03-18T06:03:20.955Z,24.35
2018-03-18T06:05:48.092Z,23.73
2018-03-18T06:08:14.475Z,22.25
2018-03-18T06:10:40.903Z,21.27
2018-03-18T06:13:07.290Z,20.95
2018-03-18T06:15:33.682Z,23.20
2018-03-18T06:18:00.109Z,21.95
2018-03-18T06:20:27.230Z,21.98
2018-03-18T06:22:54.376Z,22.40
2018-03-18T06:25:20.816Z,22.80
2018-03-18T06:27:48.042Z,21.60
2018-03-18T06:30:14.412Z,21.80
2018-03-18T06:32:41.543Z,22.40
2018-03-18T06:35:07.902Z,21.50
2018-03-18T06:37:34.350Z,20.42
2018-03-18T06:40:00.779Z,19.98
2018-03-18T06:42:27.165Z,22.50
2018-03-18T06:44:53.574Z,19.42
2018-03-18T06:47:19.966Z,20.95
2018-03-18T06:49:47.105Z,20.42
2018-03-18T06:52:14.223Z,21.30
2018-03-18T06:54:40.642Z,21.02
2018-03-18T06:57:07.076Z,22.00
2018-03-18T06:59:33.464Z,21.00
2018-03-18T07:02:00.605Z,21.40
2018-03-18T07:04:26.987Z,21.40
2018-03-18T07:06:53.379Z,21.65
2018-03-18T07:09:20.506Z,21.33
2018-03-18T07:11:46.907Z,20.90
2018-03-18T07:14:13.307Z,22.05
2018-03-18T07:16:40.436Z,21.20
2018-03-18T07:19:06.838Z,21.37
2018-03-18T07:21:33.214Z,21.60
2018-03-18T07:24:00.348Z,23.38
2018-03-18T07:26:27.457Z,22.60
2018-03-18T07:28:53.858Z,22.23
2018-03-18T07:31:20.990Z,21.92
2018-03-18T07:33:48.105Z,24.52
2018-03-18T07:36:14.510Z,24.80
2018-03-18T07:38:40.984Z,24.25
2018-03-18T07:41:07.371Z,25.90
2018-03-18T07:43:34.494Z,25.37
2018-03-18T07:46:00.922Z,25.12
2018-03-18T07:48:27.317Z,25.48
2018-03-18T07:50:53.709Z,24.95
2018-03-18T07:53:20.842Z,20.00
2018-03-18T07:55:47.988Z,19.37
2018-03-18T07:58:14.373Z,18.12
2018-03-18T08:00:40.834Z,18.30
2018-03-18T08:03:07.256Z,19.08
2018-03-18T08:05:33.635Z,20.10
2018-03-18T08:08:00.778Z,19.42
2018-03-18T08:10:27.182Z,20.77
2018-03-18T08:12:53.549Z,17.67
2018-03-18T08:15:20.691Z,18.40
2018-03-18T08:17:47.072Z,18.55
2018-03-18T08:20:13.479Z,18.60
2018-03-18T08:22:39.863Z,18.52
2018-03-18T08:25:06.269Z,18.00
2018-03-18T08:27:32.656Z,19.23
2018-03-18T08:29:59.030Z,19.83
2018-03-18T08:32:26.171Z,17.35
2018-03-18T08:34:53.314Z,19.05
2018-03-18T08:37:19.715Z,18.83
2018-03-18T08:39:46.115Z,16.40
2018-03-18T08:42:12.537Z,19.87
2018-03-18T08:44:39.674Z,18.05
2018-03-18T08:47:06.788Z,19.37
2018-03-18T08:49:33.207Z,19.52
2018-03-18T08:51:59.618Z,17.55
2018-03-18T08:54:26.038Z,14.77
2018-03-18T08:56:53.185Z,17.58
2018-03-18T08:59:20.348Z,19.17
2018-03-18T09:01:46.752Z,17.80
2018-03-18T09:04:13.131Z,19.42
2018-03-18T09:06:39.550Z,18.00
2018-03-18T09:09:05.954Z,15.18
2018-03-18T09:11:32.360Z,18.65
2018-03-18T09:13:58.760Z,14.87
2018-03-18T09:16:25.154Z,19.15
2018-03-18T09:18:51.574Z,17.85
2018-03-18T09:21:17.983Z,19.80
2018-03-18T09:23:44.390Z,17.95
2018-03-18T09:26:10.811Z,18.52
2018-03-18T09:28:37.951Z,17.90
2018-03-18T09:31:05.115Z,19.33
2018-03-18T09:33:32.291Z,18.65
2018-03-18T09:35:58.668Z,16.87
2018-03-18T09:38:26.521Z,16.98
2018-03-18T09:40:52.931Z,17.33
2018-03-18T09:43:19.310Z,16.10
2018-03-18T09:45:46.106Z,14.07
2018-03-18T09:48:12.511Z,13.98
2018-03-18T09:50:39.653Z,15.80
2018-03-18T09:53:06.782Z,17.67
2018-03-18T09:55:33.935Z,18.33
2018-03-18T09:58:01.101Z,14.77
2018-03-18T10:00:27.486Z,15.20
2018-03-18T10:02:53.912Z,17.27
2018-03-18T10:05:20.512Z,17.23
2018-03-18T10:07:46.942Z,16.27
2018-03-18T10:10:13.334Z,13.90
2018-03-18T10:12:39.731Z,16.45
2018-03-18T10:15:06.910Z,13.50
2018-03-18T10:17:33.291Z,16.15
2018-03-18T10:19:59.700Z,10.45
2018-03-18T10:22:26.071Z,16.90
2018-03-18T10:24:53.215Z,15.95
2018-03-18T10:27:19.586Z,15.95
2018-03-18T10:29:45.997Z,17.45
2018-03-18T10:32:13.150Z,18.05
2018-03-18T10:34:40.306Z,17.75
2018-03-18T10:37:06.711Z,14.50
2018-03-18T10:39:33.117Z,14.15
2018-03-18T10:41:59.573Z,12.13
2018-03-18T10:44:26.722Z,14.73
2018-03-18T10:46:53.167Z,18.50
2018-03-18T10:49:20.378Z,18.90
2018-03-18T10:51:46.822Z,19.23
2018-03-18T10:54:13.258Z,19.42
2018-03-18T10:56:39.684Z,19.33
2018-03-18T10:59:06.114Z,19.45
2018-03-18T11:01:33.462Z,18.65
2018-03-18T11:04:06.027Z,21.92
2018-03-18T11:06:32.462Z,20.02
2018-03-18T11:08:58.914Z,20.10
2018-03-18T11:11:25.370Z,17.70
2018-03-18T11:13:51.853Z,19.83
2018-03-18T11:16:19.098Z,20.02
2018-03-18T11:18:45.413Z,21.20
2018-03-18T11:21:11.815Z,19.67
2018-03-18T11:23:38.252Z,21.50
2018-03-18T11:26:04.697Z,19.37
2018-03-18T11:28:31.113Z,19.17
2018-03-18T11:30:57.574Z,19.52
2018-03-18T11:33:24.002Z,19.92
2018-03-18T11:35:50.511Z,20.02
2018-03-18T11:38:16.963Z,20.27
2018-03-18T11:40:43.388Z,20.83
2018-03-18T11:43:09.854Z,20.13
2018-03-18T11:45:36.330Z,19.95
2018-03-18T11:48:03.500Z,20.60
2018-03-18T11:50:30.016Z,20.85
2018-03-18T11:52:57.158Z,19.98
2018-03-18T11:55:24.303Z,21.70
2018-03-18T11:57:50.712Z,22.55
2018-03-18T12:00:17.181Z,21.02
2018-03-18T12:02:44.333Z,21.67
2018-03-18T12:05:11.471Z,22.17
2018-03-18T12:07:37.895Z,20.33
2018-03-18T12:10:04.291Z,20.83
2018-03-18T12:12:30.687Z,20.90
2018-03-18T12:14:57.827Z,21.20
2018-03-18T12:17:24.254Z,20.67
2018-03-18T12:19:50.718Z,20.58
2018-03-18T12:22:17.895Z,19.62
2018-03-18T12:24:44.323Z,20.40
2018-03-18T12:27:10.702Z,21.48
2018-03-18T12:29:37.117Z,21.00
2018-03-18T12:32:03.501Z,20.12
2018-03-18T12:34:30.659Z,20.95
2018-03-18T12:36:57.780Z,21.98
2018-03-18T12:39:24.248Z,20.60
2018-03-18T12:41:51.398Z,21.60
2018-03-18T12:44:18.535Z,21.48
2018-03-18T12:46:45.698Z,19.37
2018-03-18T12:49:12.809Z,18.80
2018-03-18T12:51:39.234Z,21.25
2018-03-18T12:54:05.665Z,20.58
2018-03-18T12:56:32.146Z,21.37
2018-03-18T12:58:59.352Z,20.05
2018-03-18T13:01:25.776Z,20.92
2018-03-18T13:03:52.239Z,21.20
2018-03-18T13:06:18.641Z,19.40
2018-03-18T13:08:45.050Z,21.07
2018-03-18T13:11:12.162Z,21.12
2018-03-18T13:13:38.566Z,18.35
2018-03-18T13:16:04.965Z,20.95
2018-03-18T13:18:32.103Z,21.10
2018-03-18T13:20:59.303Z,20.20
2018-03-18T13:23:25.681Z,19.70
2018-03-18T13:25:52.073Z,19.98
2018-03-18T13:28:18.484Z,18.92
2018-03-18T13:30:44.879Z,20.00
2018-03-18T13:33:11.298Z,18.95
2018-03-18T13:35:38.428Z,19.48
2018-03-18T13:38:04.893Z,19.17
2018-03-18T13:40:31.276Z,19.58
2018-03-18T13:42:57.706Z,19.37
2018-03-18T13:45:24.086Z,20.52
2018-03-18T13:47:50.544Z,18.83
2018-03-18T13:50:16.928Z,21.40
2018-03-18T13:52:43.364Z,19.95
2018-03-18T13:55:09.787Z,20.23
2018-03-18T13:57:36.169Z,21.45
2018-03-18T14:00:02.720Z,21.02
2018-03-18T14:02:29.098Z,20.73
2018-03-18T14:04:55.527Z,21.25
2018-03-18T14:07:21.934Z,18.77
2018-03-18T14:09:49.090Z,19.65
2018-03-18T14:12:15.510Z,20.10
2018-03-18T14:14:42.637Z,20.55
2018-03-18T14:17:09.084Z,20.77
2018-03-18T14:19:35.598Z,19.80
2018-03-18T14:22:02.037Z,21.17
2018-03-18T14:24:28.422Z,20.00
2018-03-18T14:26:54.825Z,20.75
2018-03-18T14:29:21.399Z,20.33
2018-03-18T14:31:47.826Z,21.85
2018-03-18T14:34:14.224Z,22.70
2018-03-18T14:36:40.996Z,21.90
2018-03-18T14:39:08.169Z,21.92
2018-03-18T14:41:34.559Z,21.60
2018-03-18T14:44:00.998Z,21.92
2018-03-18T14:46:27.421Z,20.55
2018-03-18T14:48:53.814Z,19.83
2018-03-18T14:51:20.272Z,20.95
2018-03-18T14:53:46.646Z,19.62
2018-03-18T14:56:13.791Z,21.05
2018-03-18T14:58:40.920Z,19.73
2018-03-18T15:01:07.358Z,20.02
2018-03-18T15:03:33.784Z,20.00
2018-03-18T15:06:00.241Z,19.55
2018-03-18T15:08:26.638Z,19.83
2018-03-18T15:10:53.042Z,20.45
2018-03-18T15:13:19.492Z,20.13
2018-03-18T15:15:45.898Z,20.60
2018-03-18T15:18:13.106Z,19.45
2018-03-18T15:20:39.543Z,20.02
2018-03-18T15:23:05.995Z,20.95
2018-03-18T15:25:32.482Z,18.20
2018-03-18T15:27:58.886Z,18.15
2018-03-18T15:30:26.125Z,21.02
2018-03-18T15:32:52.539Z,20.98
2018-03-18T15:35:19.019Z,20.80
2018-03-18T15:37:45.462Z,20.00
2018-03-18T15:40:11.900Z,21.95
2018-03-18T15:42:38.374Z,20.00
2018-03-18T15:45:04.775Z,20.02
2018-03-18T15:47:31.201Z,18.98
2018-03-18T15:49:57.654Z,20.62
2018-03-18T15:52:24.085Z,20.17
2018-03-18T15:54:50.558Z,19.48
2018-03-18T15:57:16.982Z,19.87
2018-03-18T15:59:43.465Z,18.80
2018-03-18T16:02:09.867Z,19.23
2018-03-18T16:04:37.073Z,19.23
2018-03-18T16:07:03.561Z,17.90
2018-03-18T16:09:30.019Z,19.80
2018-03-18T16:11:57.213Z,20.15
2018-03-18T16:14:23.626Z,19.40
2018-03-18T16:16:50.036Z,19.75
2018-03-18T16:19:17.249Z,19.97
2018-03-18T16:21:43.659Z,19.52
2018-03-18T16:24:10.070Z,20.48
2018-03-18T16:26:36.685Z,18.92
2018-03-18T16:29:16.094Z,18.85
2018-03-18T16:31:42.506Z,20.98
2018-03-18T16:34:09.009Z,19.83
2018-03-18T16:36:36.163Z,20.65
2018-03-18T16:39:03.564Z,20.40
2018-03-18T16:41:30.006Z,21.17
2018-03-18T16:43:56.439Z,19.20
2018-03-18T16:46:22.836Z,19.15
2018-03-18T16:48:49.270Z,19.95
2018-03-18T16:51:15.690Z,19.17
2018-03-18T16:53:42.859Z,20.05
2018-03-18T16:56:09.304Z,19.17
2018-03-18T16:58:35.805Z,19.58
2018-03-18T17:01:02.993Z,18.55
2018-03-18T17:03:29.447Z,20.90
2018-03-18T17:05:55.883Z,19.27
2018-03-18T17:08:22.278Z,21.60
2018-03-18T17:10:48.682Z,20.73
2018-03-18T17:13:15.117Z,19.25
2018-03-18T17:15:43.188Z,17.85
2018-03-18T17:18:09.823Z,18.80
2018-03-18T17:20:36.230Z,15.98
2018-03-18T17:23:02.766Z,18.73
2018-03-18T17:25:29.245Z,21.10
2018-03-18T17:27:56.374Z,19.70
2018-03-18T17:30:22.776Z,19.30
2018-03-18T17:32:49.188Z,17.53
2018-03-18T17:35:15.589Z,18.30
2018-03-18T17:37:42.012Z,18.92
2018-03-18T17:40:08.454Z,17.80
2018-03-18T17:42:34.895Z,18.73
2018-03-18T17:45:13.680Z,17.37
2018-03-18T17:47:52.393Z,19.00
2018-03-18T17:53:31.145Z,19.40
2018-03-18T17:56:09.851Z,19.67
2018-03-18T17:58:36.296Z,19.67
2018-03-18T18:01:02.774Z,19.02
2018-03-18T18:03:29.191Z,18.10
2018-03-18T18:05:55.661Z,19.75
2018-03-18T18:08:22.878Z,18.73
2018-03-18T18:10:49.355Z,17.83
2018-03-18T18:13:16.491Z,18.98
2018-03-18T18:15:42.910Z,21.35
2018-03-18T18:18:09.289Z,21.30
2018-03-18T18:20:35.689Z,20.37
2018-03-18T18:23:02.142Z,20.10
2018-03-18T18:25:29.292Z,18.80
2018-03-18T18:27:56.479Z,19.52
2018-03-18T18:30:22.939Z,19.23
2018-03-18T18:32:49.398Z,19.10
2018-03-18T18:35:16.564Z,21.20
2018-03-18T18:37:43.733Z,19.00
2018-03-18T18:40:10.879Z,21.12
2018-03-18T18:42:38.037Z,17.00
2018-03-18T18:45:05.243Z,20.02
2018-03-18T18:47:31.747Z,19.95
2018-03-18T18:49:58.206Z,18.98
2018-03-18T18:52:24.681Z,19.65
2018-03-18T18:54:51.879Z,19.05
2018-03-18T18:57:18.294Z,20.65
2018-03-18T18:59:44.685Z,20.15
2018-03-18T19:02:11.129Z,20.10
2018-03-18T19:04:37.570Z,19.48
2018-03-18T19:07:04.776Z,19.85
2018-03-18T19:09:31.223Z,21.45
2018-03-18T19:11:57.707Z,20.65
2018-03-18T19:14:24.913Z,22.30
2018-03-18T19:16:51.385Z,22.20
2018-03-18T19:19:18.576Z,20.50
2018-03-18T19:21:44.976Z,20.37
2018-03-18T19:24:12.122Z,19.60
2018-03-18T19:26:39.257Z,21.60
2018-03-18T19:29:05.682Z,20.20
2018-03-18T19:31:32.097Z,20.95
2018-03-18T19:33:58.537Z,19.48
2018-03-18T19:36:24.969Z,19.30
2018-03-18T19:38:51.367Z,19.60
2018-03-18T19:41:17.797Z,21.15
2018-03-18T19:43:44.223Z,18.90
2018-03-18T19:46:11.410Z,18.40
2018-03-18T19:48:38.028Z,19.35
2018-03-18T19:51:04.452Z,20.97
2018-03-18T19:53:31.588Z,19.12
2018-03-18T19:55:57.973Z,17.80
2018-03-18T19:58:24.390Z,19.52
2018-03-18T20:00:50.771Z,18.77
2018-03-18T20:03:17.208Z,19.73
2018-03-18T20:05:43.604Z,20.83
2018-03-18T20:08:10.035Z,20.20
2018-03-18T20:10:36.415Z,20.30
2018-03-18T20:13:03.568Z,20.27
2018-03-18T20:15:29.988Z,20.45
2018-03-18T20:17:56.387Z,19.70
2018-03-18T20:20:22.854Z,21.23
2018-03-18T20:22:49.275Z,19.62
2018-03-18T20:25:15.741Z,19.48
2018-03-18T20:27:42.974Z,20.98
2018-03-18T20:30:09.387Z,19.67
2018-03-18T20:32:35.833Z,21.40
2018-03-18T20:35:02.286Z,20.83
2018-03-18T20:37:29.476Z,20.15
2018-03-18T20:39:55.901Z,20.20
2018-03-18T20:42:23.056Z,20.80
2018-03-18T20:44:50.193Z,19.60
2018-03-18T20:47:16.647Z,19.37
2018-03-18T20:49:45.588Z,20.33
2018-03-18T20:52:11.978Z,20.77
2018-03-18T20:54:38.402Z,20.50
2018-03-18T20:57:06.123Z,19.73
2018-03-18T20:59:32.539Z,20.30
2018-03-18T21:01:58.982Z,20.17
2018-03-18T21:04:25.417Z,21.30
2018-03-18T21:06:51.842Z,21.33
2018-03-18T21:09:18.212Z,19.30
2018-03-18T21:11:44.644Z,21.10
2018-03-18T21:14:11.139Z,21.37
2018-03-18T21:16:37.566Z,19.60
2018-03-18T21:19:03.976Z,20.13
2018-03-18T21:21:31.133Z,19.37
2018-03-18T21:23:58.333Z,20.65
2018-03-18T21:26:24.766Z,21.85
2018-03-18T21:28:51.154Z,20.85
2018-03-18T21:31:18.291Z,21.00
2018-03-18T21:33:44.727Z,20.17
2018-03-18T21:36:11.098Z,20.58
2018-03-18T21:38:37.506Z,21.37
2018-03-18T21:41:04.620Z,20.37
2018-03-18T21:43:30.990Z,20.20
2018-03-18T21:45:58.152Z,20.20
2018-03-18T21:48:25.273Z,19.65
2018-03-18T21:50:51.671Z,19.27
2018-03-18T21:53:18.094Z,18.58
2018-03-18T21:55:44.481Z,20.77
2018-03-18T21:58:10.879Z,21.00
2018-03-18T22:00:37.281Z,20.33
2018-03-18T22:03:03.710Z,20.67
2018-03-18T22:05:30.129Z,19.50
2018-03-18T22:07:57.266Z,21.03
2018-03-18T22:10:24.410Z,20.70
2018-03-18T22:12:50.789Z,22.30
2018-03-18T22:15:17.211Z,21.50
2018-03-18T22:17:44.358Z,20.30
2018-03-18T22:20:11.502Z,21.80
2018-03-18T22:22:38.647Z,21.35
2018-03-18T22:25:05.771Z,21.73
2018-03-18T22:27:32.193Z,21.85
2018-03-18T22:29:58.567Z,21.02
2018-03-18T22:32:25.697Z,22.90
2018-03-18T22:34:52.075Z,21.17
2018-03-18T22:37:18.474Z,22.65
2018-03-18T22:39:44.883Z,22.55
2018-03-18T22:42:11.267Z,21.50
2018-03-18T22:44:38.415Z,22.13
2018-03-18T22:47:05.542Z,21.80
2018-03-18T22:49:31.929Z,21.30
2018-03-18T22:51:58.308Z,21.33
2018-03-18T22:54:24.720Z,21.30
2018-03-18T22:56:51.123Z,22.10
2018-03-18T22:59:17.498Z,21.48
2018-03-18T23:01:43.924Z,20.70
2018-03-18T23:04:10.297Z,24.10
2018-03-18T23:06:37.444Z,23.27
2018-03-18T23:09:04.557Z,22.73
2018-03-18T23:11:30.965Z,22.53
2018-03-18T23:13:57.371Z,21.33
2018-03-18T23:16:24.486Z,22.13
2018-03-18T23:18:50.898Z,23.02
2018-03-18T23:21:17.281Z,22.27
2018-03-18T23:23:43.673Z,22.42
2018-03-18T23:26:10.076Z,23.58
2018-03-18T23:28:36.482Z,23.02
2018-03-18T23:31:03.616Z,23.87
2018-03-18T23:33:30.127Z,23.33
2018-03-18T23:35:56.501Z,22.35
2018-03-18T23:38:23.647Z,23.62
2018-03-18T23:40:50.081Z,24.25
2018-03-18T23:43:16.449Z,23.50
2018-03-18T23:45:42.862Z,24.15
2018-03-18T23:48:09.976Z,24.85
2018-03-18T23:50:36.414Z,24.00
2018-03-18T23:53:02.799Z,24.95
2018-03-18T23:55:29.189Z,22.50
2018-03-18T23:57:55.694Z,24.63
